createdAt,value
2022-08-24T00:00:39.236Z,17.23
2022-08-24T00:03:07.502Z,17.90
2022-08-24T00:05:36.644Z,18.30
2022-08-24T00:08:03.917Z,18.60
2022-08-24T00:10:30.568Z,20.15
2022-08-24T00:12:57.963Z,18.95
2022-08-24T00:15:24.848Z,19.23
2022-08-24T00:17:54.370Z,18.85
2022-08-24T00:20:23.449Z,18.92
2022-08-24T00:22:49.929Z,20.73
2022-08-24T00:25:17.870Z,20.15
2022-08-24T00:27:47.065Z,19.10
2022-08-24T00:30:15.852Z,18.85
2022-08-24T00:32:45.287Z,20.23
2022-08-24T00:35:13.684Z,21.38
2022-08-24T00:37:41.243Z,20.13
2022-08-24T00:40:13.780Z,20.92
2022-08-24T00:42:41.350Z,20.65
2022-08-24T00:45:10.808Z,20.58
2022-08-24T00:47:51.600Z,20.08
2022-08-24T00:50:24.332Z,19.92
2022-08-24T00:52:58.083Z,21.40
2022-08-24T00:55:36.659Z,20.10
2022-08-24T00:58:15.577Z,21.48
2022-08-24T01:00:48.785Z,20.48
2022-08-24T01:03:18.382Z,21.90
2022-08-24T01:05:46.052Z,21.98
2022-08-24T01:08:14.098Z,22.98
2022-08-24T01:10:49.846Z,21.85
2022-08-24T01:13:16.705Z,23.13
2022-08-24T01:15:47.782Z,22.15
2022-08-24T01:18:42.626Z,22.40
2022-08-24T01:21:38.041Z,22.17
2022-08-24T01:24:12.992Z,22.58
2022-08-24T01:26:45.874Z,21.10
2022-08-24T01:29:24.452Z,20.67
2022-08-24T01:31:52.699Z,21.20
2022-08-24T01:34:21.992Z,21.73
2022-08-24T01:36:51.601Z,20.42
2022-08-24T01:39:26.733Z,20.45
2022-08-24T01:41:54.150Z,20.50
2022-08-24T01:44:24.939Z,21.05
2022-08-24T01:46:54.108Z,19.08
2022-08-24T01:49:28.714Z,19.80
2022-08-24T01:51:55.677Z,21.25
2022-08-24T01:54:25.406Z,20.38
2022-08-24T01:56:52.223Z,21.05
2022-08-24T01:59:20.287Z,20.63
2022-08-24T02:01:52.214Z,21.15
2022-08-24T02:04:18.966Z,20.00
2022-08-24T02:06:48.081Z,21.27
2022-08-24T02:09:16.851Z,21.60
2022-08-24T02:11:48.273Z,22.35
2022-08-24T02:14:14.878Z,20.15
2022-08-24T02:16:42.049Z,18.40
2022-08-24T02:19:08.692Z,19.77
2022-08-24T02:21:40.111Z,19.48
2022-08-24T02:24:07.402Z,18.48
2022-08-24T02:26:36.085Z,19.23
2022-08-24T02:29:04.857Z,19.15
2022-08-24T02:31:31.478Z,18.77
2022-08-24T02:33:58.180Z,18.08
2022-08-24T02:36:26.005Z,17.60
2022-08-24T02:38:58.441Z,16.85
2022-08-24T02:41:25.757Z,18.00
2022-08-24T02:43:53.605Z,18.23
2022-08-24T02:46:22.958Z,18.98
2022-08-24T02:48:58.106Z,19.38
2022-08-24T02:51:44.108Z,19.70
2022-08-24T02:54:14.059Z,19.33
2022-08-24T02:56:43.928Z,19.15
2022-08-24T02:59:12.637Z,18.75
2022-08-24T03:01:39.581Z,18.35
2022-08-24T03:04:06.310Z,19.60
2022-08-24T03:06:33.587Z,20.40
2022-08-24T03:09:02.336Z,19.23
2022-08-24T03:11:29.016Z,20.35
2022-08-24T03:13:59.189Z,20.48
2022-08-24T03:16:27.334Z,20.30
2022-08-24T03:18:54.024Z,20.13
2022-08-24T03:21:23.720Z,20.70
2022-08-24T03:23:50.390Z,20.35
2022-08-24T03:26:17.167Z,19.40
2022-08-24T03:28:44.503Z,20.33
2022-08-24T03:31:12.427Z,18.92
2022-08-24T03:33:39.094Z,18.23
2022-08-24T03:36:06.222Z,18.95
2022-08-24T03:38:32.812Z,19.80
2022-08-24T03:40:59.374Z,18.70
2022-08-24T03:43:44.976Z,19.75
2022-08-24T03:46:12.443Z,19.58
2022-08-24T03:48:44.280Z,20.30
2022-08-24T03:51:13.105Z,20.63
2022-08-24T03:53:42.470Z,20.13
2022-08-24T03:56:11.085Z,21.00
2022-08-24T03:58:41.691Z,20.70
2022-08-24T04:01:09.260Z,19.40
2022-08-24T04:03:38.424Z,20.35
2022-08-24T04:06:05.751Z,19.98
2022-08-24T04:08:35.053Z,22.15
2022-08-24T04:11:02.632Z,21.95
2022-08-24T04:13:32.038Z,20.50
2022-08-24T04:16:10.126Z,20.95
2022-08-24T04:18:37.091Z,22.45
2022-08-24T04:21:04.196Z,20.05
2022-08-24T04:23:47.684Z,18.08
2022-08-24T04:26:43.920Z,18.25
2022-08-24T04:29:09.449Z,16.98
2022-08-24T04:31:38.049Z,16.77
2022-08-24T04:34:09.921Z,16.13
2022-08-24T04:36:36.506Z,15.68
2022-08-24T04:39:03.656Z,15.15
2022-08-24T04:41:31.324Z,15.73
2022-08-24T04:43:59.412Z,15.15
2022-08-24T04:46:26.910Z,15.20
2022-08-24T04:48:55.985Z,16.17
2022-08-24T04:51:25.024Z,14.85
2022-08-24T04:53:51.825Z,14.43
2022-08-24T04:56:26.314Z,14.85
2022-08-24T04:58:55.548Z,14.88
2022-08-24T05:01:24.664Z,15.38
2022-08-24T05:03:54.154Z,14.60
2022-08-24T05:06:23.199Z,14.90
2022-08-24T05:08:52.027Z,14.40
2022-08-24T05:11:20.710Z,13.88
2022-08-24T05:13:48.204Z,13.70
2022-08-24T05:16:17.873Z,11.82
2022-08-24T05:18:48.317Z,11.73
2022-08-24T05:21:17.795Z,10.80
2022-08-24T05:23:47.873Z,10.98
2022-08-24T05:26:26.073Z,11.30
2022-08-24T05:29:00.555Z,12.02
2022-08-24T05:31:29.865Z,11.30
2022-08-24T05:33:57.822Z,11.57
2022-08-24T05:36:30.701Z,11.18
2022-08-24T05:39:00.644Z,10.50
2022-08-24T05:41:28.488Z,11.50
2022-08-24T05:43:55.655Z,10.88
2022-08-24T05:46:22.550Z,11.18
2022-08-24T05:48:52.819Z,11.98
2022-08-24T05:51:20.790Z,12.10
2022-08-24T05:53:47.799Z,12.45
2022-08-24T05:56:17.094Z,12.63
2022-08-24T05:58:44.431Z,12.57
2022-08-24T06:01:19.091Z,12.10
2022-08-24T06:03:45.803Z,12.45
2022-08-24T06:06:13.517Z,13.02
2022-08-24T06:08:43.276Z,13.43
2022-08-24T06:11:12.890Z,14.45
2022-08-24T06:13:41.705Z,13.38
2022-08-24T06:16:22.225Z,13.65
2022-08-24T06:18:49.936Z,13.73
2022-08-24T06:21:20.204Z,14.65
2022-08-24T06:23:48.143Z,15.10
2022-08-24T06:26:33.657Z,16.88
2022-08-24T06:29:03.186Z,18.08
2022-08-24T06:31:30.008Z,14.68
2022-08-24T06:34:06.103Z,17.73
2022-08-24T06:36:32.680Z,16.25
2022-08-24T06:38:59.739Z,17.75
2022-08-24T06:41:26.652Z,18.08
2022-08-24T06:43:53.322Z,16.35
2022-08-24T06:46:32.022Z,17.73
2022-08-24T06:48:59.493Z,18.25
2022-08-24T06:51:26.029Z,18.48
2022-08-24T06:53:56.242Z,19.08
2022-08-24T06:56:23.033Z,18.98
2022-08-24T06:58:49.775Z,18.75
2022-08-24T07:01:22.953Z,19.20
2022-08-24T07:03:50.139Z,19.05
2022-08-24T07:06:18.199Z,19.58
2022-08-24T07:08:44.865Z,18.55
2022-08-24T07:11:14.905Z,17.98
2022-08-24T07:13:42.009Z,16.55
2022-08-24T07:16:10.180Z,16.73
2022-08-24T07:18:37.529Z,15.23
2022-08-24T07:21:08.135Z,16.85
2022-08-24T07:23:41.811Z,15.35
2022-08-24T07:26:20.807Z,13.98
2022-08-24T07:29:04.948Z,13.80
2022-08-24T07:31:35.549Z,13.80
2022-08-24T07:34:04.024Z,13.85
2022-08-24T07:36:30.852Z,12.13
2022-08-24T07:38:58.361Z,10.80
2022-08-24T07:44:13.700Z,9.80
2022-08-24T07:46:41.636Z,10.77
2022-08-24T07:49:29.273Z,10.60
2022-08-24T07:52:03.461Z,11.80
2022-08-24T07:54:30.047Z,10.85
2022-08-24T07:56:59.861Z,11.50
2022-08-24T07:59:26.399Z,10.43
2022-08-24T08:01:53.006Z,9.95
2022-08-24T08:04:22.108Z,11.02
2022-08-24T08:06:49.302Z,9.10
2022-08-24T08:09:16.003Z,8.20
2022-08-24T08:11:42.571Z,10.52
2022-08-24T08:14:09.200Z,11.52
2022-08-24T08:16:35.932Z,10.43
2022-08-24T08:19:12.255Z,9.95
2022-08-24T08:22:12.448Z,10.40
2022-08-24T08:24:43.856Z,9.57
2022-08-24T08:27:12.108Z,10.07
2022-08-24T08:29:43.376Z,8.18
2022-08-24T08:32:16.999Z,8.02
2022-08-24T08:34:44.859Z,7.93
2022-08-24T08:37:12.369Z,7.60
2022-08-24T08:39:40.590Z,7.18
2022-08-24T08:42:58.708Z,6.50
2022-08-24T08:45:39.619Z,6.97
2022-08-24T08:48:32.345Z,8.20
2022-08-24T08:51:04.927Z,6.55
2022-08-24T08:53:45.334Z,5.70
2022-08-24T08:56:35.901Z,6.97
2022-08-24T08:59:27.338Z,6.57
2022-08-24T09:02:11.396Z,7.90
2022-08-24T09:05:19.565Z,7.80
2022-08-24T09:08:09.009Z,6.85
2022-08-24T09:10:44.748Z,6.03
2022-08-24T09:13:35.943Z,5.65
2022-08-24T09:16:21.052Z,3.70
2022-08-24T09:19:25.999Z,3.97
2022-08-24T09:22:03.286Z,4.75
2022-08-24T09:24:51.552Z,4.63
2022-08-24T09:27:33.190Z,4.05
2022-08-24T09:30:18.585Z,3.90
2022-08-24T09:33:10.451Z,3.67
2022-08-24T09:35:58.625Z,3.95
2022-08-24T09:38:57.173Z,3.20
2022-08-24T09:41:54.059Z,3.22
2022-08-24T09:44:40.367Z,3.53
2022-08-24T09:47:40.666Z,3.17
2022-08-24T09:50:07.205Z,2.75
2022-08-24T09:52:55.307Z,3.22
2022-08-24T09:55:33.685Z,4.38
2022-08-24T09:58:22.862Z,2.20
2022-08-24T10:01:10.318Z,2.00
2022-08-24T10:04:07.368Z,2.22
2022-08-24T10:06:53.383Z,2.45
2022-08-24T10:09:52.562Z,2.20
2022-08-24T10:12:43.383Z,2.50
2022-08-24T10:15:19.044Z,1.60
2022-08-24T10:17:54.581Z,2.05
2022-08-24T10:20:29.232Z,1.98
2022-08-24T10:23:11.071Z,1.85
2022-08-24T10:25:44.320Z,2.08
2022-08-24T10:28:44.728Z,2.00
2022-08-24T10:31:39.100Z,1.63
2022-08-24T10:34:43.690Z,1.00
2022-08-24T10:37:42.382Z,1.10
2022-08-24T10:40:28.752Z,1.20
2022-08-24T10:43:31.049Z,0.88
2022-08-24T10:46:19.487Z,1.27
2022-08-24T10:49:18.789Z,1.00
2022-08-24T10:52:09.154Z,1.00
2022-08-24T10:54:39.578Z,1.20
2022-08-24T10:57:15.321Z,1.30
2022-08-24T10:59:54.009Z,1.50
2022-08-24T11:02:26.452Z,1.80
2022-08-24T11:05:01.356Z,1.60
2022-08-24T11:07:28.885Z,1.70
2022-08-24T11:10:01.830Z,1.50
2022-08-24T11:12:33.383Z,1.98
2022-08-24T11:15:19.168Z,1.58
2022-08-24T11:17:55.121Z,1.50
2022-08-24T11:20:40.269Z,2.00
2022-08-24T11:23:14.842Z,1.92
2022-08-24T11:25:53.338Z,2.33
2022-08-24T11:28:22.752Z,1.92
2022-08-24T11:30:49.418Z,1.77
2022-08-24T11:33:35.287Z,2.00
2022-08-24T11:36:02.726Z,1.70
2022-08-24T11:38:34.913Z,1.80
2022-08-24T11:41:33.367Z,1.40
2022-08-24T11:44:08.513Z,1.20
2022-08-24T11:46:57.272Z,1.10
2022-08-24T11:49:37.123Z,0.90
2022-08-24T11:52:15.977Z,0.80
2022-08-24T11:55:15.209Z,0.98
2022-08-24T11:57:55.789Z,0.80
2022-08-24T12:00:26.958Z,0.70
2022-08-24T12:03:10.546Z,0.80
2022-08-24T12:05:40.028Z,0.73
2022-08-24T12:08:31.206Z,0.70
2022-08-24T12:11:29.783Z,0.77
2022-08-24T12:14:09.894Z,0.70
2022-08-24T12:16:59.702Z,0.82
2022-08-24T12:19:31.559Z,0.80
2022-08-24T12:22:03.506Z,1.00
2022-08-24T12:24:45.687Z,0.90
2022-08-24T12:27:18.107Z,0.82
2022-08-24T12:29:51.679Z,1.00
2022-08-24T12:32:30.497Z,0.90
2022-08-24T12:35:09.131Z,1.10
2022-08-24T12:38:11.160Z,1.10
2022-08-24T12:40:48.114Z,0.90
2022-08-24T12:43:39.134Z,1.00
2022-08-24T12:46:06.949Z,0.95
2022-08-24T12:48:37.579Z,1.10
2022-08-24T12:51:32.509Z,1.10
2022-08-24T12:54:12.342Z,1.08
2022-08-24T12:56:47.936Z,1.10
2022-08-24T12:59:25.541Z,1.00
2022-08-24T13:02:08.216Z,1.05
2022-08-24T13:04:49.955Z,1.10
2022-08-24T13:07:19.502Z,1.13
2022-08-24T13:09:49.386Z,1.30
2022-08-24T13:12:43.945Z,1.33
2022-08-24T13:15:31.603Z,1.40
2022-08-24T13:18:13.976Z,1.35
2022-08-24T13:20:43.838Z,1.25
2022-08-24T13:23:16.186Z,1.27
2022-08-24T13:25:51.645Z,1.50
2022-08-24T13:28:21.021Z,1.73
2022-08-24T13:30:53.926Z,1.42
2022-08-24T13:33:42.093Z,1.50
2022-08-24T13:36:31.674Z,1.30
2022-08-24T13:39:04.898Z,1.40
2022-08-24T13:41:37.415Z,1.27
2022-08-24T13:44:22.358Z,1.20
2022-08-24T13:47:20.268Z,1.48
2022-08-24T13:50:37.875Z,1.20
2022-08-24T13:53:35.203Z,1.33
2022-08-24T13:56:28.318Z,1.00
2022-08-24T13:59:36.296Z,1.30
2022-08-24T14:02:27.628Z,1.20
2022-08-24T14:05:30.852Z,1.30
2022-08-24T14:08:10.368Z,1.20
2022-08-24T14:10:55.590Z,1.30
2022-08-24T14:13:47.909Z,0.90
2022-08-24T14:16:57.567Z,1.17
2022-08-24T14:19:53.970Z,1.15
2022-08-24T14:22:23.535Z,1.15
2022-08-24T14:25:12.447Z,1.50
2022-08-24T14:27:42.641Z,1.00
2022-08-24T14:30:20.473Z,1.27
2022-08-24T14:32:59.266Z,1.05
2022-08-24T14:35:38.287Z,1.00
2022-08-24T14:38:26.422Z,1.30
2022-08-24T14:40:52.935Z,1.42
2022-08-24T14:43:38.100Z,1.20
2022-08-24T14:46:10.446Z,1.15
2022-08-24T14:49:24.632Z,1.15
2022-08-24T14:51:51.436Z,1.00
2022-08-24T14:54:17.883Z,1.13
2022-08-24T14:56:59.856Z,1.40
2022-08-24T15:00:04.460Z,1.10
2022-08-24T15:02:55.943Z,1.20
2022-08-24T15:05:31.666Z,1.00
2022-08-24T15:08:06.176Z,1.27
2022-08-24T15:10:39.102Z,1.40
2022-08-24T15:13:27.449Z,1.38
2022-08-24T15:16:08.041Z,1.23
2022-08-24T15:18:45.545Z,1.35
2022-08-24T15:21:24.369Z,1.20
2022-08-24T15:24:33.043Z,1.10
2022-08-24T15:27:24.029Z,1.10
2022-08-24T15:30:02.908Z,1.30
2022-08-24T15:32:51.960Z,1.10
2022-08-24T15:35:32.883Z,1.40
2022-08-24T15:38:18.324Z,1.48
2022-08-24T15:40:46.404Z,1.50
2022-08-24T15:43:14.512Z,1.52
2022-08-24T15:45:49.679Z,1.63
2022-08-24T15:48:19.683Z,1.40
2022-08-24T15:50:48.544Z,5.60
2022-08-24T15:53:30.156Z,1.65
2022-08-24T15:55:57.322Z,1.50
2022-08-24T15:58:36.597Z,1.42
2022-08-24T16:01:29.545Z,1.48
2022-08-24T16:04:06.683Z,1.40
2022-08-24T16:06:33.124Z,1.50
2022-08-24T16:09:04.154Z,1.60
2022-08-24T16:11:38.459Z,1.25
2022-08-24T16:14:11.373Z,1.75
2022-08-24T16:16:43.724Z,1.40
2022-08-24T16:19:40.001Z,1.50
2022-08-24T16:22:12.611Z,1.30
2022-08-24T16:24:41.619Z,1.88
2022-08-24T16:27:08.090Z,1.70
2022-08-24T16:29:38.821Z,1.30
2022-08-24T16:32:31.993Z,1.50
2022-08-24T16:35:08.470Z,1.60
2022-08-24T16:37:35.407Z,1.65
2022-08-24T16:40:02.094Z,1.67
2022-08-24T16:42:30.380Z,1.40
2022-08-24T16:44:59.191Z,1.40
2022-08-24T16:47:28.949Z,1.55
2022-08-24T16:49:55.890Z,1.48
2022-08-24T16:52:22.804Z,1.60
2022-08-24T16:54:50.433Z,1.40
2022-08-24T16:57:20.952Z,1.55
2022-08-24T16:59:49.068Z,1.40
2022-08-24T17:02:18.271Z,1.23
2022-08-24T17:04:45.153Z,1.42
2022-08-24T17:07:15.618Z,1.50
2022-08-24T17:09:44.621Z,1.60
2022-08-24T17:12:11.641Z,1.40
2022-08-24T17:14:39.662Z,1.60
2022-08-24T17:17:10.262Z,1.60
2022-08-24T17:19:37.757Z,1.67
2022-08-24T17:22:08.895Z,1.70
2022-08-24T17:24:39.027Z,1.50
2022-08-24T17:27:06.938Z,1.65
2022-08-24T17:29:36.080Z,4.93
2022-08-24T17:32:02.949Z,1.50
2022-08-24T17:34:32.234Z,1.70
2022-08-24T17:36:59.032Z,1.40
2022-08-24T17:39:25.765Z,1.70
2022-08-24T17:41:54.046Z,1.67
2022-08-24T17:44:25.814Z,1.90
2022-08-24T17:46:55.323Z,1.90
2022-08-24T17:49:22.134Z,1.60
2022-08-24T17:51:51.020Z,1.75
2022-08-24T17:54:18.209Z,1.40
2022-08-24T17:56:50.883Z,1.90
2022-08-24T17:59:29.684Z,1.55
2022-08-24T18:01:59.887Z,1.67
2022-08-24T18:04:29.839Z,1.60
2022-08-24T18:06:58.601Z,1.83
2022-08-24T18:09:33.003Z,1.80
2022-08-24T18:12:05.527Z,1.95
2022-08-24T18:14:35.196Z,1.70
2022-08-24T18:17:04.706Z,1.70
2022-08-24T18:19:33.812Z,1.92
2022-08-24T18:22:01.911Z,1.88
2022-08-24T18:24:32.571Z,2.00
2022-08-24T18:27:18.194Z,1.83
2022-08-24T18:29:46.757Z,2.03
2022-08-24T18:32:21.515Z,2.13
2022-08-24T18:34:48.097Z,2.42
2022-08-24T18:37:15.039Z,2.78
2022-08-24T18:39:41.560Z,2.47
2022-08-24T18:42:11.497Z,2.60
2022-08-24T18:44:39.522Z,2.28
2022-08-24T18:47:07.287Z,2.30
2022-08-24T18:49:36.331Z,2.67
2022-08-24T18:52:03.700Z,2.60
2022-08-24T18:54:36.378Z,2.28
2022-08-24T18:57:07.049Z,2.40
2022-08-24T18:59:35.439Z,2.08
2022-08-24T19:02:32.874Z,2.28
2022-08-24T19:05:06.462Z,2.33
2022-08-24T19:07:39.875Z,2.67
2022-08-24T19:10:08.983Z,2.50
2022-08-24T19:12:40.409Z,2.80
2022-08-24T19:15:31.942Z,3.65
2022-08-24T19:17:58.920Z,2.83
2022-08-24T19:20:27.924Z,2.95
2022-08-24T19:23:04.973Z,3.17
2022-08-24T19:25:32.211Z,3.30
2022-08-24T19:27:58.781Z,2.97
2022-08-24T19:30:27.945Z,2.85
2022-08-24T19:32:59.320Z,3.03
2022-08-24T19:35:26.421Z,2.95
2022-08-24T19:37:54.047Z,2.78
2022-08-24T19:40:21.061Z,2.85
2022-08-24T19:42:50.953Z,2.72
2022-08-24T19:45:53.180Z,2.67
2022-08-24T19:48:19.796Z,2.78
2022-08-24T19:50:46.385Z,2.85
2022-08-24T19:53:13.468Z,3.03
2022-08-24T19:55:40.110Z,2.80
2022-08-24T19:58:23.754Z,3.00
2022-08-24T20:00:57.745Z,2.92
2022-08-24T20:03:25.010Z,3.13
2022-08-24T20:05:51.837Z,2.70
2022-08-24T20:08:19.993Z,2.85
2022-08-24T20:10:47.125Z,3.17
2022-08-24T20:13:16.244Z,3.53
2022-08-24T20:15:43.040Z,3.30
2022-08-24T20:18:09.815Z,3.30
2022-08-24T20:20:36.413Z,3.17
2022-08-24T20:23:06.348Z,3.20
2022-08-24T20:25:39.991Z,2.67
2022-08-24T20:28:28.291Z,3.35
2022-08-24T20:30:56.086Z,2.70
2022-08-24T20:33:23.847Z,3.28
2022-08-24T20:35:50.967Z,2.90
2022-08-24T20:38:20.092Z,3.25
2022-08-24T20:40:48.046Z,3.22
2022-08-24T20:43:14.654Z,2.80
2022-08-24T20:45:41.792Z,2.60
2022-08-24T20:48:12.114Z,3.40
2022-08-24T20:50:39.519Z,2.97
2022-08-24T20:53:06.433Z,3.25
2022-08-24T20:55:33.119Z,3.45
2022-08-24T20:58:03.504Z,3.35
2022-08-24T21:00:32.262Z,3.92
2022-08-24T21:02:58.858Z,4.00
2022-08-24T21:05:25.545Z,4.10
2022-08-24T21:07:52.152Z,4.45
2022-08-24T21:10:21.414Z,3.78
2022-08-24T21:12:52.613Z,3.50
2022-08-24T21:15:19.356Z,3.78
2022-08-24T21:17:45.865Z,4.00
2022-08-24T21:20:18.024Z,3.65
2022-08-24T21:22:46.170Z,4.13
2022-08-24T21:25:14.465Z,4.45
2022-08-24T21:27:44.155Z,4.40
2022-08-24T21:30:14.915Z,4.68
2022-08-24T21:33:00.328Z,4.60
2022-08-24T21:35:27.058Z,4.57
2022-08-24T21:37:53.978Z,5.07
2022-08-24T21:40:21.912Z,4.15
2022-08-24T21:42:49.108Z,4.10
2022-08-24T21:45:15.835Z,4.50
2022-08-24T21:47:42.650Z,3.97
2022-08-24T21:50:09.997Z,3.95
2022-08-24T21:52:37.255Z,3.70
2022-08-24T21:55:09.667Z,3.67
2022-08-24T21:57:40.485Z,4.10
2022-08-24T22:00:11.850Z,4.55
2022-08-24T22:02:38.988Z,3.67
2022-08-24T22:05:06.100Z,4.13
2022-08-24T22:07:32.783Z,3.50
2022-08-24T22:09:59.554Z,3.42
2022-08-24T22:12:26.180Z,3.70
2022-08-24T22:14:52.755Z,3.63
2022-08-24T22:17:19.275Z,4.07
2022-08-24T22:19:45.848Z,3.88
2022-08-24T22:22:12.376Z,3.50
2022-08-24T22:24:38.935Z,3.50
2022-08-24T22:27:05.600Z,3.38
2022-08-24T22:29:33.486Z,3.80
2022-08-24T22:32:00.108Z,4.13
2022-08-24T22:34:26.678Z,3.50
2022-08-24T22:36:56.873Z,3.80
2022-08-24T22:39:23.474Z,3.97
2022-08-24T22:41:50.021Z,4.40
2022-08-24T22:44:21.263Z,3.70
2022-08-24T22:46:54.168Z,4.28
2022-08-24T22:49:22.878Z,4.40
2022-08-24T22:51:49.722Z,4.43
2022-08-24T22:54:17.403Z,4.82
2022-08-24T22:56:47.413Z,4.20
2022-08-24T22:59:20.247Z,4.78
2022-08-24T23:01:48.794Z,5.20
2022-08-24T23:04:21.362Z,4.78
2022-08-24T23:06:48.007Z,5.40
2022-08-24T23:09:14.692Z,5.40
2022-08-24T23:11:42.303Z,6.03
2022-08-24T23:14:10.076Z,5.20
2022-08-24T23:16:38.707Z,5.28
2022-08-24T23:19:25.547Z,5.40
2022-08-24T23:21:53.785Z,5.85
2022-08-24T23:24:20.824Z,4.95
2022-08-24T23:26:50.201Z,5.13
2022-08-24T23:29:17.373Z,5.82
2022-08-24T23:31:47.356Z,5.90
2022-08-24T23:34:15.165Z,5.82
2022-08-24T23:36:43.225Z,6.10
2022-08-24T23:39:11.695Z,5.65
2022-08-24T23:41:42.536Z,5.65
2022-08-24T23:44:13.921Z,5.60
2022-08-24T23:46:41.175Z,5.72
2022-08-24T23:49:08.786Z,6.90
2022-08-24T23:51:36.437Z,6.07
2022-08-24T23:54:03.657Z,6.10
2022-08-24T23:56:33.255Z,6.25
2022-08-24T23:59:03.404Z,6.53
